createdAt,value
2022-11-27T00:01:39.403Z,59.13
2022-11-27T00:04:11.810Z,70.33
2022-11-27T00:06:42.085Z,65.37
2022-11-27T00:09:16.501Z,68.50
2022-11-27T00:11:45.995Z,63.73
2022-11-27T00:14:17.237Z,61.40
2022-11-27T00:16:45.930Z,67.33
2022-11-27T00:19:14.799Z,60.83
2022-11-27T00:21:43.420Z,65.67
2022-11-27T00:24:13.603Z,67.80
2022-11-27T00:26:42.245Z,72.20
2022-11-27T00:29:11.446Z,66.63
2022-11-27T00:31:40.055Z,60.23
2022-11-27T00:34:09.968Z,61.20
2022-11-27T00:36:41.144Z,64.47
2022-11-27T00:39:14.499Z,69.17
2022-11-27T00:41:43.040Z,64.63
2022-11-27T00:44:13.811Z,61.60
2022-11-27T00:46:42.673Z,69.47
2022-11-27T00:49:14.912Z,72.90
2022-11-27T00:51:43.829Z,71.77
2022-11-27T00:54:14.093Z,69.57
2022-11-27T00:56:42.684Z,65.20
2022-11-27T00:59:12.129Z,72.53
2022-11-27T01:01:44.113Z,68.83
2022-11-27T01:04:15.620Z,72.10
2022-11-27T01:06:45.305Z,68.97
2022-11-27T01:09:16.503Z,70.97
2022-11-27T01:11:45.294Z,74.57
2022-11-27T01:14:18.177Z,75.67
2022-11-27T01:16:47.019Z,74.07
2022-11-27T01:19:17.983Z,67.10
2022-11-27T01:21:46.989Z,71.95
2022-11-27T01:24:18.245Z,66.60
2022-11-27T01:26:46.927Z,59.90
2022-11-27T01:29:16.248Z,66.80
2022-11-27T01:31:44.963Z,70.03
2022-11-27T01:34:17.763Z,71.63
2022-11-27T01:36:46.552Z,71.43
2022-11-27T01:39:19.882Z,69.10
2022-11-27T01:41:49.477Z,65.00
2022-11-27T01:44:53.385Z,64.93
2022-11-27T01:47:44.789Z,70.00
2022-11-27T01:50:22.959Z,68.27
2022-11-27T01:52:56.878Z,67.30
2022-11-27T01:55:36.656Z,66.30
2022-11-27T01:58:11.651Z,68.17
2022-11-27T02:00:41.145Z,71.73
2022-11-27T02:03:10.322Z,71.53
2022-11-27T02:05:39.482Z,67.03
2022-11-27T02:08:11.970Z,66.13
2022-11-27T02:10:52.873Z,64.57
2022-11-27T02:13:30.660Z,65.77
2022-11-27T02:16:17.630Z,64.07
2022-11-27T02:18:58.516Z,63.97
2022-11-27T02:21:40.018Z,64.00
2022-11-27T02:24:43.314Z,74.27
2022-11-27T02:27:52.339Z,66.63
2022-11-27T02:30:22.470Z,65.13
2022-11-27T02:32:59.362Z,66.13
2022-11-27T02:35:36.535Z,64.97
2022-11-27T02:38:13.970Z,64.90
2022-11-27T02:40:52.223Z,66.87
2022-11-27T02:43:29.525Z,70.87
2022-11-27T02:46:02.475Z,70.17
2022-11-27T02:48:36.757Z,67.47
2022-11-27T02:51:08.047Z,70.27
2022-11-27T02:53:44.113Z,65.30
2022-11-27T02:56:19.461Z,64.63
2022-11-27T02:58:51.132Z,68.83
2022-11-27T03:01:24.573Z,69.87
2022-11-27T03:03:58.980Z,70.13
2022-11-27T03:06:34.685Z,75.13
2022-11-27T03:09:11.234Z,65.27
2022-11-27T03:11:40.428Z,70.53
2022-11-27T03:14:12.656Z,69.03
2022-11-27T03:17:00.973Z,71.33
2022-11-27T03:19:40.368Z,78.03
2022-11-27T03:22:08.978Z,73.03
2022-11-27T03:24:38.121Z,71.80
2022-11-27T03:27:07.512Z,74.07
2022-11-27T03:29:42.397Z,71.23
2022-11-27T03:32:12.768Z,73.57
2022-11-27T03:34:42.750Z,70.10
2022-11-27T03:37:11.795Z,66.90
2022-11-27T03:39:41.107Z,71.23
2022-11-27T03:42:23.932Z,73.57
2022-11-27T03:45:09.080Z,75.50
2022-11-27T03:47:57.300Z,72.07
2022-11-27T03:50:41.863Z,66.93
2022-11-27T03:53:23.022Z,72.63
2022-11-27T03:55:59.478Z,72.93
2022-11-27T03:58:36.609Z,76.03
2022-11-27T04:01:12.459Z,74.80
2022-11-27T04:03:42.475Z,75.40
2022-11-27T04:06:11.796Z,71.17
2022-11-27T04:08:41.479Z,73.70
2022-11-27T04:11:10.305Z,75.20
2022-11-27T04:13:38.912Z,76.90
2022-11-27T04:16:09.097Z,71.77
2022-11-27T04:18:37.784Z,77.30
2022-11-27T04:21:08.090Z,72.03
2022-11-27T04:23:37.725Z,70.57
2022-11-27T04:26:06.843Z,66.77
2022-11-27T04:28:35.473Z,78.10
2022-11-27T04:31:04.486Z,72.83
2022-11-27T04:33:34.631Z,70.90
2022-11-27T04:36:03.606Z,68.70
2022-11-27T04:38:33.487Z,71.00
2022-11-27T04:41:02.598Z,68.00
2022-11-27T04:43:31.197Z,69.00
2022-11-27T04:46:00.043Z,67.13
2022-11-27T04:48:28.586Z,66.73
2022-11-27T04:50:57.461Z,73.80
2022-11-27T04:53:26.107Z,64.10
2022-11-27T04:55:56.292Z,66.60
2022-11-27T04:58:24.859Z,63.60
2022-11-27T05:00:53.814Z,69.13
2022-11-27T05:03:22.385Z,63.10
2022-11-27T05:05:57.408Z,64.23
2022-11-27T05:08:27.048Z,63.37
2022-11-27T05:11:05.813Z,67.77
2022-11-27T05:13:35.139Z,58.40
2022-11-27T05:16:04.373Z,65.20
2022-11-27T05:18:33.269Z,60.37
2022-11-27T05:21:05.376Z,62.07
2022-11-27T05:23:34.981Z,60.77
2022-11-27T05:26:05.259Z,61.80
2022-11-27T05:28:34.270Z,65.27
2022-11-27T05:31:03.187Z,61.43
2022-11-27T05:33:31.826Z,64.77
2022-11-27T05:36:00.654Z,62.63
2022-11-27T05:38:29.262Z,69.07
2022-11-27T05:40:58.247Z,62.53
2022-11-27T05:43:28.128Z,61.07
2022-11-27T05:45:56.963Z,59.27
2022-11-27T05:48:25.501Z,60.40
2022-11-27T05:50:54.379Z,63.70
2022-11-27T05:53:22.918Z,69.40
2022-11-27T05:55:51.910Z,65.17
2022-11-27T05:58:20.450Z,68.73
2022-11-27T06:00:50.767Z,63.53
2022-11-27T06:03:19.417Z,67.93
2022-11-27T06:05:48.325Z,61.27
2022-11-27T06:08:16.927Z,66.50
2022-11-27T06:10:45.756Z,66.03
2022-11-27T06:13:15.179Z,66.87
2022-11-27T06:15:44.133Z,62.87
2022-11-27T06:18:14.058Z,70.63
2022-11-27T06:20:45.310Z,68.17
2022-11-27T06:23:15.422Z,68.43
2022-11-27T06:25:44.223Z,70.43
2022-11-27T06:28:12.833Z,64.90
2022-11-27T06:30:41.695Z,68.13
2022-11-27T06:33:10.481Z,66.90
2022-11-27T06:35:40.643Z,67.93
2022-11-27T06:38:09.207Z,67.57
2022-11-27T06:40:38.083Z,72.10
2022-11-27T06:43:06.710Z,71.43
2022-11-27T06:45:35.597Z,66.50
2022-11-27T06:48:04.204Z,61.13
2022-11-27T06:50:33.041Z,65.20
2022-11-27T06:53:02.982Z,66.10
2022-11-27T06:55:31.930Z,69.53
2022-11-27T06:58:00.464Z,66.23
2022-11-27T07:00:29.346Z,68.00
2022-11-27T07:02:57.967Z,67.00
2022-11-27T07:05:26.996Z,67.63
2022-11-27T07:07:55.650Z,68.03
2022-11-27T07:10:25.909Z,72.93
2022-11-27T07:12:54.503Z,62.30
2022-11-27T07:15:23.360Z,67.03
2022-11-27T07:17:51.903Z,67.90
2022-11-27T07:20:20.797Z,66.37
2022-11-27T07:22:49.340Z,66.80
2022-11-27T07:25:18.449Z,66.00
2022-11-27T07:27:48.466Z,70.97
2022-11-27T07:30:17.681Z,71.17
2022-11-27T07:32:47.335Z,66.00
2022-11-27T07:35:16.333Z,74.00
2022-11-27T07:37:44.887Z,69.10
2022-11-27T07:40:15.169Z,72.40
2022-11-27T07:42:43.792Z,68.77
2022-11-27T07:45:14.406Z,66.83
2022-11-27T07:47:43.052Z,73.83
2022-11-27T07:50:13.376Z,69.93
2022-11-27T07:52:42.453Z,67.90
2022-11-27T07:55:11.777Z,60.63
2022-11-27T07:57:42.399Z,68.27
2022-11-27T08:00:14.319Z,71.20
2022-11-27T08:02:42.948Z,74.40
2022-11-27T08:05:13.237Z,65.20
2022-11-27T08:07:42.236Z,66.67
2022-11-27T08:10:11.436Z,70.07
2022-11-27T08:12:40.017Z,61.40
2022-11-27T08:15:10.929Z,70.37
2022-11-27T08:17:41.177Z,69.70
2022-11-27T08:20:11.004Z,70.57
2022-11-27T08:22:39.659Z,65.00
2022-11-27T08:25:10.041Z,65.17
2022-11-27T08:27:38.640Z,75.97
2022-11-27T08:30:09.584Z,70.65
2022-11-27T08:32:43.020Z,71.27
2022-11-27T08:35:13.035Z,69.83
2022-11-27T08:37:41.830Z,67.33
2022-11-27T08:40:12.191Z,68.30
2022-11-27T08:42:40.850Z,67.63
2022-11-27T08:45:11.279Z,68.27
2022-11-27T08:47:42.294Z,61.92
2022-11-27T08:50:11.647Z,70.13
2022-11-27T08:52:40.357Z,66.73
2022-11-27T08:55:10.279Z,65.07
2022-11-27T08:57:38.860Z,68.33
2022-11-27T09:00:09.556Z,64.17
2022-11-27T09:02:38.178Z,71.13
2022-11-27T09:05:09.662Z,70.10
2022-11-27T09:07:38.386Z,69.97
2022-11-27T09:10:09.398Z,64.10
2022-11-27T09:12:43.007Z,59.10
2022-11-27T09:15:13.643Z,63.75
2022-11-27T09:17:42.275Z,61.95
2022-11-27T09:20:14.379Z,66.90
2022-11-27T09:22:43.220Z,65.50
2022-11-27T09:25:12.055Z,60.17
2022-11-27T09:27:40.637Z,63.80
2022-11-27T09:30:11.103Z,64.47
2022-11-27T09:32:39.719Z,63.88
2022-11-27T09:35:09.712Z,62.10
2022-11-27T09:37:39.824Z,62.90
2022-11-27T09:40:15.063Z,63.38
2022-11-27T09:42:54.715Z,64.60
2022-11-27T09:45:26.407Z,68.45
2022-11-27T09:48:00.132Z,60.35
2022-11-27T09:50:33.101Z,65.27
2022-11-27T09:53:15.166Z,62.17
2022-11-27T09:55:49.207Z,59.08
2022-11-27T09:58:23.179Z,57.90
2022-11-27T10:00:52.034Z,67.97
2022-11-27T10:03:27.238Z,59.47
2022-11-27T10:06:12.857Z,63.55
2022-11-27T10:09:00.562Z,64.65
2022-11-27T10:11:38.208Z,69.93
2022-11-27T10:14:34.222Z,66.05
2022-11-27T10:17:15.610Z,64.90
2022-11-27T10:19:54.199Z,63.42
2022-11-27T10:22:31.719Z,58.78
2022-11-27T10:25:16.542Z,63.17
2022-11-27T10:28:00.538Z,63.25
2022-11-27T10:30:33.712Z,63.92
2022-11-27T10:33:05.294Z,59.97
2022-11-27T10:35:34.513Z,57.88
2022-11-27T10:38:11.639Z,67.68
2022-11-27T10:40:47.997Z,60.72
2022-11-27T10:43:22.247Z,63.63
2022-11-27T10:45:55.125Z,58.53
2022-11-27T10:48:25.227Z,62.03
2022-11-27T10:50:53.750Z,63.10
2022-11-27T10:53:30.295Z,66.28
2022-11-27T10:56:26.657Z,68.53
2022-11-27T10:59:01.599Z,57.25
2022-11-27T11:01:44.283Z,59.70
2022-11-27T11:04:36.886Z,61.08
2022-11-27T11:07:05.514Z,60.67
2022-11-27T11:09:37.017Z,61.97
2022-11-27T11:12:18.561Z,64.93
2022-11-27T11:14:53.984Z,64.65
2022-11-27T11:17:28.169Z,61.53
2022-11-27T11:19:57.072Z,62.13
2022-11-27T11:22:25.845Z,59.95
2022-11-27T11:24:55.632Z,62.10
2022-11-27T11:27:30.906Z,59.33
2022-11-27T11:30:03.225Z,62.22
2022-11-27T11:32:37.877Z,57.25
2022-11-27T11:35:24.269Z,57.13
2022-11-27T11:37:54.610Z,62.20
2022-11-27T11:40:30.178Z,58.90
2022-11-27T11:43:02.749Z,54.67
2022-11-27T11:45:34.278Z,59.47
2022-11-27T11:48:21.549Z,61.58
2022-11-27T11:50:56.729Z,56.35
2022-11-27T11:53:37.527Z,55.08
2022-11-27T11:56:27.607Z,53.50
2022-11-27T11:59:03.156Z,52.15
2022-11-27T12:01:56.604Z,50.22
2022-11-27T12:04:52.287Z,52.75
2022-11-27T12:07:41.334Z,52.15
2022-11-27T12:10:20.326Z,48.08
2022-11-27T12:13:02.955Z,50.22
2022-11-27T12:15:40.509Z,49.85
2022-11-27T12:18:20.089Z,50.58
2022-11-27T12:21:08.121Z,50.47
2022-11-27T12:23:59.324Z,50.03
2022-11-27T12:26:48.161Z,53.03
2022-11-27T12:29:55.680Z,50.47
2022-11-27T12:32:57.280Z,53.55
2022-11-27T12:35:34.038Z,49.05
2022-11-27T12:38:23.375Z,49.17
2022-11-27T12:41:17.315Z,47.08
2022-11-27T12:43:52.059Z,46.97
2022-11-27T12:46:31.238Z,49.88
2022-11-27T12:49:13.601Z,51.03
2022-11-27T12:51:52.104Z,50.90
2022-11-27T12:54:28.297Z,48.30
2022-11-27T12:57:03.436Z,49.42
2022-11-27T12:59:38.955Z,53.13
2022-11-27T13:02:29.376Z,49.28
2022-11-27T13:05:05.496Z,48.33
2022-11-27T13:07:45.380Z,55.08
2022-11-27T13:10:24.049Z,55.38
2022-11-27T13:13:06.142Z,49.13
2022-11-27T13:15:42.193Z,49.70
2022-11-27T13:18:21.057Z,48.63
2022-11-27T13:20:53.175Z,46.25
2022-11-27T13:23:22.915Z,52.15
2022-11-27T13:25:57.034Z,48.17
2022-11-27T13:28:36.418Z,52.15
2022-11-27T13:31:07.645Z,51.65
2022-11-27T13:33:42.167Z,51.28
2022-11-27T13:36:25.947Z,52.08
2022-11-27T13:38:59.873Z,53.75
2022-11-27T13:41:35.867Z,52.70
2022-11-27T13:44:11.419Z,55.92
2022-11-27T13:46:49.462Z,51.80
2022-11-27T13:49:27.547Z,48.15
2022-11-27T13:52:11.657Z,47.13
2022-11-27T13:54:52.189Z,51.83
2022-11-27T13:57:21.952Z,49.35
2022-11-27T14:00:00.679Z,45.42
2022-11-27T14:02:43.810Z,48.83
2022-11-27T14:05:15.042Z,45.58
2022-11-27T14:07:48.882Z,51.40
2022-11-27T14:10:23.236Z,48.25
2022-11-27T14:12:57.684Z,49.55
2022-11-27T14:15:29.631Z,52.20
2022-11-27T14:18:09.524Z,50.08
2022-11-27T14:20:49.895Z,49.95
2022-11-27T14:23:31.753Z,56.35
2022-11-27T14:26:19.944Z,47.78
2022-11-27T14:28:55.134Z,52.33
2022-11-27T14:31:30.041Z,51.20
2022-11-27T14:34:16.036Z,45.53
2022-11-27T14:36:46.577Z,51.80
2022-11-27T14:39:25.269Z,49.53
2022-11-27T14:42:02.174Z,51.50
2022-11-27T14:44:31.645Z,50.15
2022-11-27T14:47:06.529Z,54.28
2022-11-27T14:49:35.606Z,48.42
2022-11-27T14:52:15.220Z,51.80
2022-11-27T14:54:46.269Z,50.88
2022-11-27T14:57:23.508Z,52.92
2022-11-27T15:00:16.632Z,55.65
2022-11-27T15:02:46.655Z,55.00
2022-11-27T15:05:23.023Z,50.60
2022-11-27T15:07:55.544Z,51.45
2022-11-27T15:10:37.226Z,54.42
2022-11-27T15:13:09.735Z,53.10
2022-11-27T15:15:44.280Z,48.88
2022-11-27T15:18:23.933Z,53.92
2022-11-27T15:20:53.941Z,57.58
2022-11-27T15:23:28.163Z,55.97
2022-11-27T15:26:15.814Z,63.03
2022-11-27T15:28:54.427Z,65.43
2022-11-27T15:31:31.081Z,69.82
2022-11-27T15:34:06.715Z,64.43
2022-11-27T15:36:43.517Z,63.55
2022-11-27T15:39:21.891Z,69.97
2022-11-27T15:42:00.699Z,73.40
2022-11-27T15:44:32.476Z,74.32
2022-11-27T15:47:03.944Z,73.25
2022-11-27T15:49:34.025Z,71.05
2022-11-27T15:52:02.718Z,65.32
2022-11-27T15:54:31.561Z,63.20
2022-11-27T15:57:01.543Z,64.00
2022-11-27T15:59:30.475Z,62.10
2022-11-27T16:01:59.173Z,61.83
2022-11-27T16:04:28.347Z,61.47
2022-11-27T16:06:57.022Z,62.00
2022-11-27T16:09:26.000Z,64.70
2022-11-27T16:11:54.616Z,65.20
2022-11-27T16:14:25.360Z,63.05
2022-11-27T16:16:54.048Z,68.55
2022-11-27T16:19:23.028Z,67.43
2022-11-27T16:21:51.620Z,62.22
2022-11-27T16:24:20.814Z,65.13
2022-11-27T16:26:49.608Z,72.72
2022-11-27T16:29:18.559Z,69.10
2022-11-27T16:31:48.882Z,83.55
2022-11-27T16:34:18.702Z,84.68
2022-11-27T16:36:48.512Z,87.00
2022-11-27T16:39:18.955Z,80.10
2022-11-27T16:41:47.703Z,77.80
2022-11-27T16:44:17.333Z,74.03
2022-11-27T16:46:46.062Z,72.43
2022-11-27T16:49:16.520Z,66.38
2022-11-27T16:51:46.261Z,66.73
2022-11-27T16:54:15.889Z,62.42
2022-11-27T16:56:45.404Z,62.30
2022-11-27T16:59:16.896Z,62.00
2022-11-27T17:01:46.239Z,65.13
2022-11-27T17:04:21.844Z,61.97
2022-11-27T17:06:51.148Z,62.40
2022-11-27T17:09:20.537Z,63.55
2022-11-27T17:11:50.221Z,59.03
2022-11-27T17:14:20.807Z,60.03
2022-11-27T17:16:50.897Z,68.30
2022-11-27T17:19:26.371Z,81.57
2022-11-27T17:21:55.134Z,73.53
2022-11-27T17:24:25.736Z,72.40
2022-11-27T17:26:55.479Z,91.13
2022-11-27T17:29:33.837Z,89.15
2022-11-27T17:32:07.353Z,85.90
2022-11-27T17:34:37.910Z,75.20
2022-11-27T17:37:07.386Z,81.25
2022-11-27T17:39:36.298Z,73.20
2022-11-27T17:42:08.755Z,75.97
2022-11-27T17:44:40.545Z,70.00
2022-11-27T17:47:09.187Z,72.32
2022-11-27T17:49:40.031Z,65.47
2022-11-27T17:52:09.342Z,77.80
2022-11-27T17:54:39.802Z,79.87
2022-11-27T17:57:08.385Z,89.67
2022-11-27T17:59:37.315Z,85.00
2022-11-27T18:02:05.909Z,79.55
2022-11-27T18:04:36.189Z,76.83
2022-11-27T18:07:06.297Z,68.10
2022-11-27T18:09:35.271Z,83.83
2022-11-27T18:12:06.388Z,87.65
2022-11-27T18:14:35.899Z,94.80
2022-11-27T18:17:07.123Z,90.63
2022-11-27T18:19:35.967Z,94.63
2022-11-27T18:22:08.225Z,96.00
2022-11-27T18:24:41.604Z,92.17
2022-11-27T18:27:10.590Z,99.53
2022-11-27T18:29:44.593Z,89.33
2022-11-27T18:32:15.284Z,94.60
2022-11-27T18:34:44.754Z,84.75
2022-11-27T18:37:15.109Z,88.80
2022-11-27T18:39:45.422Z,85.50
2022-11-27T18:42:14.588Z,73.60
2022-11-27T18:44:45.392Z,71.03
2022-11-27T18:47:16.195Z,70.43
2022-11-27T18:49:48.962Z,71.47
2022-11-27T18:52:19.186Z,72.00
2022-11-27T18:54:48.221Z,73.63
2022-11-27T18:57:19.129Z,75.37
2022-11-27T18:59:48.164Z,72.10
2022-11-27T19:02:17.669Z,72.83
2022-11-27T19:04:46.895Z,71.53
2022-11-27T19:07:15.578Z,72.10
2022-11-27T19:09:45.880Z,77.47
2022-11-27T19:12:14.724Z,85.03
2022-11-27T19:14:43.888Z,74.43
2022-11-27T19:17:13.030Z,77.17
2022-11-27T19:19:57.204Z,76.83
2022-11-27T19:22:27.992Z,74.73
2022-11-27T19:24:59.971Z,76.07
2022-11-27T19:27:29.403Z,81.63
2022-11-27T19:29:58.513Z,74.00
2022-11-27T19:32:27.257Z,77.68
2022-11-27T19:34:56.159Z,76.87
2022-11-27T19:37:33.910Z,77.40
2022-11-27T19:40:06.660Z,82.28
2022-11-27T19:42:35.602Z,81.30
2022-11-27T19:45:05.443Z,87.93
2022-11-27T19:47:34.139Z,73.93
2022-11-27T19:50:03.588Z,79.27
2022-11-27T19:52:34.257Z,82.10
2022-11-27T19:55:05.216Z,80.67
2022-11-27T19:57:35.645Z,84.50
2022-11-27T20:00:06.068Z,77.83
2022-11-27T20:02:42.842Z,87.28
2022-11-27T20:05:11.875Z,80.47
2022-11-27T20:07:40.631Z,77.72
2022-11-27T20:10:12.395Z,81.18
2022-11-27T20:12:41.400Z,79.95
2022-11-27T20:15:14.354Z,83.72
2022-11-27T20:17:43.750Z,76.60
2022-11-27T20:20:14.229Z,79.55
2022-11-27T20:22:43.214Z,75.83
2022-11-27T20:25:20.860Z,80.75
2022-11-27T20:27:50.806Z,78.68
2022-11-27T20:30:20.791Z,78.70
2022-11-27T20:32:49.723Z,78.50
2022-11-27T20:35:18.875Z,78.27
2022-11-27T20:37:48.329Z,77.23
2022-11-27T20:40:20.365Z,78.68
2022-11-27T20:42:49.063Z,82.10
2022-11-27T20:45:20.471Z,80.32
2022-11-27T20:47:50.917Z,85.47
2022-11-27T20:50:21.145Z,82.60
2022-11-27T20:52:50.305Z,84.17
2022-11-27T20:55:21.539Z,76.70
2022-11-27T20:57:54.582Z,79.75
2022-11-27T21:00:24.829Z,84.90
2022-11-27T21:02:53.582Z,85.25
2022-11-27T21:05:22.665Z,83.22
2022-11-27T21:07:51.540Z,79.82
2022-11-27T21:10:23.580Z,90.95
2022-11-27T21:12:52.150Z,90.22
2022-11-27T21:15:21.104Z,89.72
2022-11-27T21:17:49.898Z,88.55
2022-11-27T21:20:20.708Z,91.53
2022-11-27T21:22:49.616Z,84.45
2022-11-27T21:25:22.634Z,85.32
2022-11-27T21:27:58.009Z,82.65
2022-11-27T21:30:27.502Z,80.07
2022-11-27T21:32:56.100Z,84.17
2022-11-27T21:35:31.268Z,81.07
2022-11-27T21:38:01.707Z,83.43
2022-11-27T21:40:30.798Z,85.68
2022-11-27T21:43:00.917Z,88.13
2022-11-27T21:45:30.305Z,84.88
2022-11-27T21:47:59.378Z,87.95
2022-11-27T21:50:28.275Z,78.78
2022-11-27T21:52:57.539Z,81.30
2022-11-27T21:55:26.426Z,79.97
2022-11-27T21:57:54.989Z,87.07
2022-11-27T22:00:25.780Z,82.95
2022-11-27T22:02:54.408Z,87.68
2022-11-27T22:05:23.458Z,88.33
2022-11-27T22:07:52.041Z,92.93
2022-11-27T22:10:21.119Z,85.13
2022-11-27T22:12:49.746Z,86.60
2022-11-27T22:15:18.868Z,86.30
2022-11-27T22:17:49.410Z,81.53
2022-11-27T22:20:18.834Z,83.30
2022-11-27T22:22:47.420Z,96.47
2022-11-27T22:25:18.026Z,87.87
2022-11-27T22:27:46.635Z,89.30
2022-11-27T22:30:16.038Z,95.75
2022-11-27T22:32:44.604Z,91.13
2022-11-27T22:35:14.900Z,95.37
2022-11-27T22:37:43.739Z,92.40
2022-11-27T22:40:14.736Z,96.17
2022-11-27T22:42:43.446Z,86.10
2022-11-27T22:45:12.928Z,88.43
2022-11-27T22:47:41.589Z,85.43
2022-11-27T22:50:11.127Z,85.30
2022-11-27T22:52:41.081Z,98.47
2022-11-27T22:55:10.812Z,94.33
2022-11-27T22:57:39.480Z,95.50
2022-11-27T23:00:11.049Z,94.95
2022-11-27T23:02:40.074Z,91.53
2022-11-27T23:05:10.171Z,93.70
2022-11-27T23:07:40.186Z,84.17
2022-11-27T23:10:10.454Z,95.30
2022-11-27T23:12:39.088Z,93.80
2022-11-27T23:15:08.868Z,96.30
2022-11-27T23:17:37.447Z,99.80
2022-11-27T23:20:08.306Z,92.33
2022-11-27T23:22:37.074Z,89.83
2022-11-27T23:25:09.076Z,87.40
2022-11-27T23:27:37.662Z,89.37
2022-11-27T23:30:08.833Z,86.03
2022-11-27T23:32:39.436Z,91.47
2022-11-27T23:35:09.586Z,79.87
2022-11-27T23:37:38.191Z,84.30
2022-11-27T23:40:09.958Z,84.20
2022-11-27T23:42:38.547Z,88.53
2022-11-27T23:45:09.002Z,84.33
2022-11-27T23:47:37.787Z,84.23
2022-11-27T23:50:08.945Z,81.13
2022-11-27T23:52:37.511Z,90.97
2022-11-27T23:55:08.642Z,91.33
2022-11-27T23:57:37.262Z,87.75
